Time,TemperatureF,DewpointF,PressureIn,WindDirection,WindDirectionDegrees,WindSpeedMPH,WindSpeedGustMPH,Humidity,HourlyPrecipIn,Conditions,Clouds,dailyrainin,SoftwareType,DateUTC
2013-02-12 00:01:00,49.0,35.0,29.71,SW,218,3.0,11.0,58,0.00,,,0.06,,2013-02-11 23:01:00,
2013-02-12 00:11:00,49.0,35.0,29.71,SW,218,3.0,11.0,58,0.00,,,0.06,,2013-02-11 23:11:00,
2013-02-12 00:21:00,51.0,34.0,29.69,NNW,338,16.0,30.0,53,0.00,,,0.06,,2013-02-11 23:21:00,
2013-02-12 00:32:00,51.0,36.0,29.69,North,351,11.0,30.0,57,0.01,,,0.07,,2013-02-11 23:32:00,
2013-02-12 00:42:00,51.0,36.0,29.69,North,351,11.0,30.0,57,0.01,,,0.07,,2013-02-11 23:42:00,
2013-02-12 00:52:00,51.0,36.0,29.70,West,274,10.0,23.0,56,0.01,,,0.07,,2013-02-11 23:52:00,
2013-02-12 01:01:00,50.0,36.0,29.70,WSW,258,4.0,11.0,58,0.01,,,0.07,,2013-02-12 00:01:00,
2013-02-12 01:11:00,50.0,36.0,29.70,WSW,258,4.0,11.0,58,0.01,,,0.07,,2013-02-12 00:11:00,
2013-02-12 01:21:00,50.0,36.0,29.70,WSW,258,4.0,11.0,58,0.01,,,0.07,,2013-02-12 00:21:00,
2013-02-12 01:31:00,50.0,38.0,29.71,West,262,5.0,16.0,62,0.00,,,0.07,,2013-02-12 00:31:00,
2013-02-12 01:41:00,50.0,38.0,29.71,West,262,5.0,16.0,62,0.00,,,0.07,,2013-02-12 00:41:00,
2013-02-12 01:52:00,51.0,39.0,29.70,West,260,9.0,18.0,64,0.00,,,0.07,,2013-02-12 00:52:00,
2013-02-12 02:01:00,51.0,37.0,29.70,WSW,258,8.0,18.0,59,0.00,,,0.07,,2013-02-12 01:01:00,
2013-02-12 02:11:00,51.0,37.0,29.70,WSW,258,8.0,18.0,59,0.00,,,0.07,,2013-02-12 01:11:00,
2013-02-12 02:21:00,51.0,36.0,29.69,WNW,289,8.0,17.0,56,0.00,,,0.07,,2013-02-12 01:21:00,
2013-02-12 02:31:00,51.0,35.0,29.69,West,265,7.0,22.0,55,0.00,,,0.07,,2013-02-12 01:31:00,
2013-02-12 02:41:00,51.0,37.0,29.70,West,273,10.0,23.0,58,0.00,,,0.07,,2013-02-12 01:41:00,
2013-02-12 02:52:00,51.0,37.0,29.70,West,273,10.0,23.0,58,0.00,,,0.07,,2013-02-12 01:52:00,
2013-02-12 03:01:00,51.0,37.0,29.70,West,273,10.0,23.0,58,0.00,,,0.07,,2013-02-12 02:01:00,
2013-02-12 03:11:00,51.0,37.0,29.70,West,273,10.0,23.0,58,0.00,,,0.07,,2013-02-12 02:11:00,
2013-02-12 03:21:00,51.0,37.0,29.70,West,273,10.0,23.0,58,0.00,,,0.07,,2013-02-12 02:21:00,
2013-02-12 03:32:00,52.0,39.0,29.68,West,271,10.0,25.0,61,0.00,,,0.06,,2013-02-12 02:32:00,
2013-02-12 03:42:00,52.0,39.0,29.68,West,271,10.0,25.0,61,0.00,,,0.06,,2013-02-12 02:42:00,
2013-02-12 03:52:00,51.0,38.0,29.68,West,261,11.0,30.0,60,0.00,,,0.06,,2013-02-12 02:52:00,
2013-02-12 04:02:00,51.0,38.0,29.68,West,261,11.0,30.0,60,0.00,,,0.06,,2013-02-12 03:02:00,
2013-02-12 04:11:00,52.0,38.0,29.67,West,269,12.0,28.0,58,0.00,,,0.06,,2013-02-12 03:11:00,
2013-02-12 04:21:00,52.0,38.0,29.67,West,269,12.0,28.0,58,0.00,,,0.06,,2013-02-12 03:21:00,
2013-02-12 04:31:00,52.0,37.0,29.66,West,273,11.0,20.0,56,0.00,,,0.04,,2013-02-12 03:31:00,
2013-02-12 04:41:00,52.0,37.0,29.66,West,273,11.0,20.0,56,0.00,,,0.04,,2013-02-12 03:41:00,
2013-02-12 04:51:00,52.0,37.0,29.66,West,273,11.0,20.0,56,0.00,,,0.04,,2013-02-12 03:51:00,
2013-02-12 05:01:00,52.0,37.0,29.65,West,261,10.0,27.0,57,0.00,,,0.01,,2013-02-12 04:01:00,
2013-02-12 05:11:00,52.0,37.0,29.65,West,261,10.0,27.0,57,0.00,,,0.01,,2013-02-12 04:11:00,
2013-02-12 05:21:00,51.0,36.0,29.66,West,270,10.0,21.0,56,0.00,,,0.01,,2013-02-12 04:21:00,
2013-02-12 05:31:00,52.0,36.0,29.66,West,269,9.0,21.0,55,0.00,,,0.01,,2013-02-12 04:31:00,
2013-02-12 05:41:00,52.0,36.0,29.66,West,269,9.0,21.0,55,0.00,,,0.01,,2013-02-12 04:41:00,
2013-02-12 05:52:00,52.0,35.0,29.66,West,266,10.0,20.0,53,0.00,,,0.01,,2013-02-12 04:52:00,
2013-02-12 06:01:00,51.0,35.0,29.66,West,261,10.0,21.0,54,0.00,,,0.01,,2013-02-12 05:01:00,
2013-02-12 06:11:00,51.0,34.0,29.66,West,281,8.0,21.0,52,0.00,,,0.01,,2013-02-12 05:11:00,
2013-02-12 06:21:00,51.0,34.0,29.66,West,281,8.0,21.0,52,0.00,,,0.01,,2013-02-12 05:21:00,
2013-02-12 06:31:00,51.0,34.0,29.66,West,281,8.0,21.0,52,0.00,,,0.01,,2013-02-12 05:31:00,
2013-02-12 06:41:00,51.0,34.0,29.66,West,281,8.0,21.0,52,0.00,,,0.01,,2013-02-12 05:41:00,
2013-02-12 06:52:00,51.0,34.0,29.66,West,272,5.0,18.0,51,0.00,,,0.01,,2013-02-12 05:52:00,
2013-02-12 07:01:00,51.0,34.0,29.66,West,272,5.0,18.0,51,0.00,,,0.01,,2013-02-12 06:01:00,
2013-02-12 07:12:00,50.0,35.0,29.67,SW,227,6.0,27.0,56,0.00,,,0.01,,2013-02-12 06:12:00,
2013-02-12 07:21:00,50.0,35.0,29.67,SW,227,6.0,27.0,56,0.00,,,0.01,,2013-02-12 06:21:00,
2013-02-12 07:31:00,50.0,35.0,29.67,SW,227,6.0,27.0,56,0.00,,,0.01,,2013-02-12 06:31:00,
2013-02-12 07:42:00,51.0,36.0,29.68,WSW,250,7.0,20.0,56,0.00,,,0.01,,2013-02-12 06:42:00,
2013-02-12 07:51:00,51.0,36.0,29.68,WSW,250,7.0,20.0,56,0.00,,,0.01,,2013-02-12 06:51:00,
2013-02-12 08:01:00,50.0,37.0,29.68,WNW,282,5.0,23.0,60,0.00,,,0.01,,2013-02-12 07:01:00,
2013-02-12 08:11:00,50.0,37.0,29.68,WNW,282,5.0,23.0,60,0.00,,,0.01,,2013-02-12 07:11:00,
2013-02-12 08:21:00,50.0,37.0,29.68,WSW,254,10.0,31.0,61,0.00,,,0.01,,2013-02-12 07:21:00,
2013-02-12 08:31:00,47.0,37.0,29.68,West,265,7.0,23.0,69,0.01,,,0.02,,2013-02-12 07:31:00,
2013-02-12 08:42:00,47.0,37.0,29.68,West,265,7.0,23.0,69,0.01,,,0.02,,2013-02-12 07:42:00,
2013-02-12 08:51:00,49.0,38.0,29.69,West,269,7.0,30.0,65,0.01,,,0.02,,2013-02-12 07:51:00,
2013-02-12 09:01:00,49.0,39.0,29.70,West,270,9.0,27.0,67,0.01,,,0.02,,2013-02-12 08:01:00,
2013-02-12 09:11:00,49.0,39.0,29.70,West,270,9.0,27.0,67,0.01,,,0.02,,2013-02-12 08:11:00,
2013-02-12 09:21:00,48.0,39.0,29.71,WNW,288,7.0,24.0,71,0.01,,,0.02,,2013-02-12 08:21:00,
2013-02-12 09:31:00,48.0,39.0,29.71,WNW,288,7.0,24.0,71,0.01,,,0.02,,2013-02-12 08:31:00,
2013-02-12 09:41:00,48.0,39.0,29.71,WNW,288,7.0,24.0,71,0.01,,,0.02,,2013-02-12 08:41:00,
2013-02-12 09:52:00,48.0,39.0,29.70,West,275,10.0,32.0,72,0.01,,,0.04,,2013-02-12 08:52:00,
2013-02-12 10:01:00,45.0,41.0,29.70,West,269,7.0,30.0,87,0.06,,,0.08,,2013-02-12 09:01:00,
2013-02-12 10:11:00,45.0,41.0,29.70,West,269,7.0,30.0,87,0.06,,,0.08,,2013-02-12 09:11:00,
2013-02-12 10:21:00,46.0,42.0,29.71,West,270,6.0,15.0,86,0.06,,,0.08,,2013-02-12 09:21:00,
2013-02-12 10:31:00,46.0,42.0,29.71,West,270,6.0,15.0,86,0.06,,,0.08,,2013-02-12 09:31:00,
2013-02-12 10:41:00,46.0,42.0,29.71,West,270,6.0,15.0,86,0.06,,,0.08,,2013-02-12 09:41:00,
2013-02-12 10:52:00,46.0,42.0,29.71,West,270,6.0,15.0,86,0.06,,,0.08,,2013-02-12 09:52:00,
2013-02-12 11:01:00,48.0,42.0,29.71,WNW,283,13.0,25.0,81,0.05,,,0.09,,2013-02-12 10:01:00,
2013-02-12 11:11:00,49.0,41.0,29.71,NW,321,17.0,33.0,75,0.02,,,0.11,,2013-02-12 10:11:00,
2013-02-12 11:21:00,49.0,41.0,29.71,NW,321,17.0,33.0,75,0.02,,,0.11,,2013-02-12 10:21:00,
2013-02-12 11:31:00,49.0,41.0,29.75,WNW,291,9.0,24.0,75,0.01,,,0.11,,2013-02-12 10:31:00,
2013-02-12 11:43:00,49.0,41.0,29.75,WNW,291,9.0,24.0,75,0.01,,,0.11,,2013-02-12 10:43:00,
2013-02-12 11:51:00,49.0,42.0,29.76,North,349,7.0,23.0,76,0.01,,,0.11,,2013-02-12 10:51:00,
2013-02-12 12:01:00,49.0,42.0,29.76,North,349,7.0,23.0,76,0.01,,,0.11,,2013-02-12 11:01:00,
2013-02-12 12:11:00,49.0,42.0,29.76,North,349,7.0,23.0,76,0.01,,,0.11,,2013-02-12 11:11:00,
2013-02-12 12:21:00,49.0,41.0,29.78,NNW,332,6.0,17.0,75,0.00,,,0.11,,2013-02-12 11:21:00,
2013-02-12 12:31:00,49.0,41.0,29.78,NNW,332,6.0,17.0,75,0.00,,,0.11,,2013-02-12 11:31:00,
2013-02-12 12:41:00,49.0,41.0,29.78,NNW,332,6.0,17.0,75,0.00,,,0.11,,2013-02-12 11:41:00,
2013-02-12 12:52:00,47.0,44.0,29.80,WNW,300,7.0,17.0,88,0.02,,,0.13,,2013-02-12 11:52:00,
2013-02-12 13:01:00,45.0,42.0,29.80,NW,311,7.0,17.0,88,0.02,,,0.13,,2013-02-12 12:01:00,
2013-02-12 13:11:00,45.0,42.0,29.80,NW,311,7.0,17.0,88,0.02,,,0.13,,2013-02-12 12:11:00,
2013-02-12 13:21:00,45.0,42.0,29.80,NW,311,7.0,17.0,88,0.02,,,0.13,,2013-02-12 12:21:00,
2013-02-12 13:32:00,48.0,42.0,29.81,NW,326,8.0,17.0,80,0.01,,,0.13,,2013-02-12 12:32:00,
2013-02-12 13:42:00,48.0,42.0,29.81,NW,326,8.0,17.0,80,0.01,,,0.13,,2013-02-12 12:42:00,
2013-02-12 13:52:00,49.0,42.0,29.82,NNW,331,7.0,21.0,77,0.01,,,0.14,,2013-02-12 12:52:00,
2013-02-12 14:01:00,50.0,39.0,29.82,NW,313,8.0,28.0,67,0.01,,,0.14,,2013-02-12 13:01:00,
2013-02-12 14:11:00,53.0,40.0,29.82,NNW,332,8.0,16.0,61,0.01,,,0.14,,2013-02-12 13:11:00,
2013-02-12 14:21:00,53.0,40.0,29.82,NNW,332,8.0,16.0,61,0.01,,,0.14,,2013-02-12 13:21:00,
2013-02-12 14:31:00,52.0,37.0,29.83,NNE,23,8.0,21.0,57,0.01,,,0.14,,2013-02-12 13:31:00,
2013-02-12 14:41:00,52.0,37.0,29.83,NNE,23,8.0,21.0,57,0.01,,,0.14,,2013-02-12 13:41:00,
2013-02-12 14:51:00,51.0,37.0,29.83,WNW,288,9.0,23.0,59,0.00,,,0.14,,2013-02-12 13:51:00,
2013-02-12 15:01:00,51.0,37.0,29.83,WNW,288,9.0,23.0,59,0.00,,,0.14,,2013-02-12 14:01:00,
2013-02-12 15:11:00,51.0,37.0,29.83,WNW,288,9.0,23.0,59,0.00,,,0.14,,2013-02-12 14:11:00,
2013-02-12 15:21:00,52.0,39.0,29.84,North,357,2.0,11.0,60,0.00,,,0.14,,2013-02-12 14:21:00,
2013-02-12 15:32:00,54.0,40.0,29.85,NNW,337,5.0,16.0,60,0.00,,,0.14,,2013-02-12 14:32:00,
2013-02-12 15:42:00,54.0,40.0,29.85,NNW,337,5.0,16.0,60,0.00,,,0.14,,2013-02-12 14:42:00,
2013-02-12 15:52:00,54.0,40.0,29.85,NNW,337,5.0,16.0,60,0.00,,,0.14,,2013-02-12 14:52:00,
2013-02-12 16:01:00,54.0,39.0,29.86,WNW,283,7.0,18.0,57,0.00,,,0.14,,2013-02-12 15:01:00,
2013-02-12 16:11:00,54.0,39.0,29.86,WNW,283,7.0,18.0,57,0.00,,,0.14,,2013-02-12 15:11:00,
2013-02-12 16:21:00,54.0,39.0,29.86,WNW,283,7.0,18.0,57,0.00,,,0.14,,2013-02-12 15:21:00,
2013-02-12 16:32:00,56.0,42.0,29.87,WSW,254,4.0,10.0,60,0.00,,,0.14,,2013-02-12 15:32:00,
2013-02-12 16:42:00,56.0,42.0,29.87,WSW,254,4.0,10.0,60,0.00,,,0.14,,2013-02-12 15:42:00,
2013-02-12 16:52:00,56.0,42.0,29.87,WSW,254,4.0,10.0,60,0.00,,,0.14,,2013-02-12 15:52:00,
2013-02-12 17:01:00,56.0,40.0,29.87,WSW,245,4.0,11.0,55,0.00,,,0.14,,2013-02-12 16:01:00,
2013-02-12 17:11:00,56.0,40.0,29.87,WSW,245,4.0,11.0,55,0.00,,,0.14,,2013-02-12 16:11:00,
2013-02-12 17:22:00,56.0,41.0,29.88,West,270,4.0,13.0,56,0.00,,,0.14,,2013-02-12 16:22:00,
2013-02-12 17:31:00,54.0,40.0,29.88,SW,227,6.0,8.0,60,0.00,,,0.14,,2013-02-12 16:31:00,
2013-02-12 17:41:00,54.0,40.0,29.88,SW,227,6.0,8.0,60,0.00,,,0.14,,2013-02-12 16:41:00,
2013-02-12 17:51:00,54.0,41.0,29.87,WSW,238,3.0,10.0,61,0.00,,,0.14,,2013-02-12 16:51:00,
2013-02-12 18:01:00,55.0,43.0,29.88,WSW,248,2.0,5.0,63,0.00,,,0.14,,2013-02-12 17:01:00,
2013-02-12 18:11:00,55.0,43.0,29.88,WSW,248,2.0,5.0,63,0.00,,,0.14,,2013-02-12 17:11:00,
2013-02-12 18:21:00,55.0,43.0,29.88,WSW,248,2.0,5.0,63,0.00,,,0.14,,2013-02-12 17:21:00,
2013-02-12 18:31:00,50.0,42.0,29.88,WSW,240,2.0,11.0,73,0.00,,,0.14,,2013-02-12 17:31:00,
2013-02-12 18:41:00,50.0,42.0,29.88,WSW,240,2.0,11.0,73,0.00,,,0.14,,2013-02-12 17:41:00,
2013-02-12 18:52:00,49.0,41.0,29.88,WSW,237,2.0,10.0,74,0.00,,,0.14,,2013-02-12 17:52:00,
2013-02-12 19:01:00,49.0,41.0,29.88,WSW,237,2.0,10.0,74,0.00,,,0.14,,2013-02-12 18:01:00,
2013-02-12 19:11:00,48.0,41.0,29.89,SW,227,1.0,6.0,78,0.00,,,0.14,,2013-02-12 18:11:00,
2013-02-12 19:22:00,48.0,41.0,29.89,SW,227,1.0,6.0,78,0.00,,,0.14,,2013-02-12 18:22:00,
2013-02-12 19:31:00,48.0,42.0,29.90,South,175,0.0,4.0,81,0.00,,,0.14,,2013-02-12 18:31:00,
2013-02-12 19:41:00,48.0,42.0,29.90,South,175,0.0,4.0,81,0.00,,,0.14,,2013-02-12 18:41:00,
2013-02-12 19:51:00,48.0,42.0,29.91,SSW,201,1.0,4.0,80,0.00,,,0.14,,2013-02-12 18:51:00,
2013-02-12 20:01:00,48.0,42.0,29.91,SSW,201,1.0,4.0,80,0.00,,,0.14,,2013-02-12 19:01:00,
2013-02-12 20:11:00,48.0,42.0,29.91,SSW,201,1.0,4.0,80,0.00,,,0.14,,2013-02-12 19:11:00,
2013-02-12 20:21:00,48.0,42.0,29.91,SSW,201,1.0,4.0,80,0.00,,,0.14,,2013-02-12 19:21:00,
2013-02-12 20:31:00,48.0,42.0,29.91,SSW,201,1.0,4.0,80,0.00,,,0.14,,2013-02-12 19:31:00,
2013-02-12 21:01:00,45.0,43.0,29.93,WSW,258,1.0,4.0,91,0.00,,,0.14,,2013-02-12 20:01:00,
2013-02-12 21:11:00,45.0,43.0,29.93,WSW,258,1.0,4.0,91,0.00,,,0.14,,2013-02-12 20:11:00,
2013-02-12 21:21:00,47.0,43.0,29.94,NW,320,2.0,5.0,87,0.00,,,0.14,,2013-02-12 20:21:00,
2013-02-12 21:31:00,49.0,43.0,29.95,WSW,249,1.0,6.0,80,0.00,,,0.14,,2013-02-12 20:31:00,
2013-02-12 21:42:00,49.0,43.0,29.95,WSW,249,1.0,6.0,80,0.00,,,0.14,,2013-02-12 20:42:00,
2013-02-12 21:52:00,49.0,43.0,29.95,SSW,195,1.0,5.0,81,0.00,,,0.14,,2013-02-12 20:52:00,
2013-02-12 22:01:00,50.0,43.0,29.95,WSW,247,2.0,5.0,78,0.00,,,0.14,,2013-02-12 21:01:00,
2013-02-12 22:11:00,50.0,43.0,29.95,WSW,247,2.0,5.0,78,0.00,,,0.14,,2013-02-12 21:11:00,
2013-02-12 22:21:00,51.0,44.0,29.96,WSW,241,3.0,12.0,76,0.00,,,0.14,,2013-02-12 21:21:00,
2013-02-12 22:31:00,51.0,44.0,29.96,WSW,241,3.0,12.0,76,0.00,,,0.14,,2013-02-12 21:31:00,
2013-02-12 22:41:00,51.0,44.0,29.96,WSW,241,3.0,12.0,76,0.00,,,0.14,,2013-02-12 21:41:00,
2013-02-12 22:51:00,51.0,44.0,29.96,WSW,241,3.0,12.0,76,0.00,,,0.14,,2013-02-12 21:51:00,
2013-02-12 23:01:00,51.0,43.0,29.96,WSW,246,1.0,5.0,75,0.00,,,0.14,,2013-02-12 22:01:00,
2013-02-12 23:12:00,51.0,43.0,29.96,WSW,246,1.0,5.0,75,0.00,,,0.14,,2013-02-12 22:12:00,
2013-02-12 23:21:00,51.0,43.0,29.96,WSW,246,1.0,5.0,75,0.00,,,0.14,,2013-02-12 22:21:00,
2013-02-12 23:31:00,51.0,44.0,29.96,NNW,330,1.0,7.0,77,0.00,,,0.14,,2013-02-12 22:31:00,
2013-02-12 23:41:00,51.0,44.0,29.96,NNW,330,1.0,7.0,77,0.00,,,0.14,,2013-02-12 22:41:00,
2013-02-12 23:52:00,51.0,44.0,29.96,WSW,243,3.0,11.0,76,0.00,,,0.14,,2013-02-12 22:52:00,